Time;durP1;ratioP1;P1;durP2;ratioP2;P2;SDS_P1;SDS_P2;PMS_P1;PMS_P2;Temp;Humidity;BMP_temperature;BMP_pressure;BME280_temperature;BME280_humidity;BME280_pressure;Samples;Min_cycle;Max_cycle;Signal;HPM_P1;HPM_P2
2023/07/17 00:02:06;;;;;;;1.48;0.50;;;15.20;83.20;;;;;;4852823;29;20058;-91
2023/07/17 00:04:36;;;;;;;0.60;0.40;;;16.20;81.10;;;;;;4844954;29;20046;-91
2023/07/17 00:07:02;;;;;;;0.30;0.30;;;16.10;80.00;;;;;;4853676;29;20053;-90
2023/07/17 00:09:35;;;;;;;0.30;0.20;;;16.20;80.40;;;;;;4855480;29;20044;-90
2023/07/17 00:12:04;;;;;;;0.10;0.10;;;16.20;79.50;;;;;;4865904;29;20570;-90
2023/07/17 00:14:32;;;;;;;0.20;0.20;;;15.20;77.10;;;;;;4868590;29;20624;-90
2023/07/17 00:17:01;;;;;;;0.45;0.45;;;15.30;75.00;;;;;;4860350;29;20105;-90
2023/07/17 00:19:29;;;;;;;0.35;0.20;;;16.10;75.50;;;;;;4868598;29;20046;-90
2023/07/17 00:21:57;;;;;;;0.30;0.20;;;16.20;78.40;;;;;;4851412;29;20068;-90
2023/07/17 00:24:23;;;;;;;0.98;0.40;;;16.10;76.30;;;;;;4860625;29;20049;-90
2023/07/17 00:26:51;;;;;;;0.40;0.32;;;16.20;76.80;;;;;;4867041;29;20181;-90
2023/07/17 00:29:28;;;;;;;0.10;0.10;;;16.10;77.50;;;;;;4853188;29;20045;-90
2023/07/17 00:31:54;;;;;;;;;;;16.10;76.80;;;;;;4875009;29;20053;-90
2023/07/17 00:34:23;;;;;;;0.28;0.28;;;16.10;89.00;;;;;;4844929;29;19924;-90
2023/07/17 00:36:58;;;;;;;0.20;0.20;;;16.10;78.60;;;;;;4816647;29;20053;-89
2023/07/17 00:39:24;;;;;;;0.20;0.20;;;16.10;82.60;;;;;;4859465;29;20065;-90
2023/07/17 00:41:53;;;;;;;0.20;0.20;;;16.10;83.20;;;;;;4860326;29;20053;-89
2023/07/17 00:44:19;;;;;;;1.48;0.35;;;16.00;85.20;;;;;;4859932;29;20444;-90
2023/07/17 00:46:52;;;;;;;0.10;0.10;;;16.00;86.00;;;;;;4846633;29;20048;-90
2023/07/17 00:49:23;;;;;;;0.20;0.20;;;16.00;88.70;;;;;;4863234;29;20113;-90
2023/07/17 00:51:51;;;;;;;0.30;0.20;;;16.00;86.20;;;;;;4878585;29;20596;-89
2023/07/17 00:54:18;;;;;;;0.10;0.10;;;15.90;91.00;;;;;;4862917;29;20078;-90
2023/07/17 00:56:47;;;;;;;0.30;0.30;;;15.90;88.30;;;;;;4862640;29;20135;-90
2023/07/17 00:59:17;;;;;;;0.55;0.40;;;15.90;90.60;;;;;;4863106;29;20112;-89
2023/07/17 01:01:43;;;;;;;0.55;0.28;;;15.90;90.50;;;;;;4877970;29;20139;-90
2023/07/17 01:04:14;;;;;;;0.38;0.38;;;15.90;90.50;;;;;;4863015;29;20554;-90
2023/07/17 01:06:42;;;;;;;0.17;0.17;;;15.80;90.00;;;;;;4862638;29;20049;-90
2023/07/17 01:09:12;;;;;;;0.17;0.17;;;15.80;90.30;;;;;;4857326;29;20462;-90
2023/07/17 01:11:40;;;;;;;0.55;0.35;;;15.80;88.50;;;;;;4866667;29;20080;-90
2023/07/17 01:14:17;;;;;;;0.47;0.30;;;15.70;84.20;;;;;;4867873;29;20185;-90
2023/07/17 01:16:49;;;;;;;0.47;0.40;;;15.70;85.70;;;;;;4854015;29;20618;-90
2023/07/17 01:19:18;;;;;;;0.10;0.10;;;15.60;80.80;;;;;;4860959;29;20131;-90
2023/07/17 01:22:09;;;;;;;0.15;0.08;;;15.60;80.10;;;;;;4860344;29;20134;-89
2023/07/17 01:24:40;;;;;;;0.35;0.22;;;15.60;79.90;;;;;;4846841;29;20049;-90
2023/07/17 01:27:14;;;;;;;0.35;0.20;;;15.50;78.10;;;;;;4812661;29;20148;-89
2023/07/17 01:29:42;;;;;;;0.05;0.05;;;15.40;82.30;;;;;;4868465;29;20049;-90
2023/07/17 01:32:10;;;;;;;0.20;0.20;;;15.50;80.80;;;;;;4864919;29;20430;-89
2023/07/17 01:34:38;;;;;;;1.55;0.43;;;15.00;80.40;;;;;;4850718;29;20073;-90
2023/07/17 01:37:05;;;;;;;0.00;0.00;;;15.50;80.00;;;;;;4862924;29;20052;-90
2023/07/17 01:39:33;;;;;;;;;;;14.50;79.80;;;;;;4862288;29;20064;-90
2023/07/17 01:42:01;;;;;;;0.17;0.17;;;15.30;88.80;;;;;;4859396;29;19924;-90
2023/07/17 01:44:30;;;;;;;0.00;0.00;;;15.20;83.60;;;;;;4852336;29;20398;-89
2023/07/17 01:47:05;;;;;;;0.20;0.20;;;15.20;83.80;;;;;;4859265;29;20058;-90
2023/07/17 01:49:36;;;;;;;0.08;0.08;;;15.20;85.90;;;;;;4817907;29;20135;-90
2023/07/17 01:52:12;;;;;;;0.20;0.20;;;15.10;86.40;;;;;;4863447;29;20045;-90
2023/07/17 01:54:40;;;;;;;0.23;0.23;;;15.10;86.00;;;;;;4847680;29;20487;-91
2023/07/17 01:57:14;;;;;;;0.00;0.00;;;15.10;88.60;;;;;;4847903;29;20358;-91
2023/07/17 01:59:44;;;;;;;0.20;0.20;;;15.10;82.40;;;;;;4862832;29;20045;-91
2023/07/17 02:02:10;;;;;;;0.20;0.20;;;15.00;82.50;;;;;;4848090;29;20057;-90
2023/07/17 02:04:36;;;;;;;0.10;0.10;;;15.00;85.20;;;;;;4847349;29;20177;-90
2023/07/17 02:07:01;;;;;;;0.30;0.15;;;15.10;83.90;;;;;;4847625;29;20122;-90
2023/07/17 02:09:29;;;;;;;0.20;0.13;;;15.10;80.60;;;;;;4849018;29;20133;-90
2023/07/17 02:11:57;;;;;;;0.10;0.10;;;15.10;80.80;;;;;;4835193;29;20049;-90
2023/07/17 02:14:26;;;;;;;0.00;0.00;;;15.00;78.00;;;;;;4852431;29;20098;-90
2023/07/17 02:16:51;;;;;;;0.40;0.10;;;15.00;76.70;;;;;;4869472;29;20045;-91
2023/07/17 02:19:20;;;;;;;0.10;0.10;;;15.00;78.00;;;;;;4862860;29;20051;-91
2023/07/17 02:21:48;;;;;;;0.20;0.20;;;15.00;77.50;;;;;;4860874;29;20438;-90
2023/07/17 02:24:19;;;;;;;0.20;0.20;;;15.00;78.00;;;;;;4861333;29;20056;-91
2023/07/17 02:26:53;;;;;;;0.15;0.15;;;15.00;76.70;;;;;;4861790;29;20045;-91
2023/07/17 02:29:19;;;;;;;0.25;0.25;;;15.00;75.00;;;;;;4846539;29;20125;-90
2023/07/17 02:31:47;;;;;;;0.32;0.20;;;15.00;74.70;;;;;;4871243;29;20124;-90
2023/07/17 02:34:23;;;;;;;0.30;0.10;;;15.00;71.50;;;;;;4858801;29;20037;-90
2023/07/17 02:36:54;;;;;;;1.58;0.50;;;15.00;69.30;;;;;;4856563;29;20489;-90
2023/07/17 02:39:20;;;;;;;0.52;0.10;;;14.90;70.70;;;;;;4870261;29;20405;-90
2023/07/17 02:41:49;;;;;;;0.13;0.13;;;15.00;71.10;;;;;;4867884;29;21719;-90
2023/07/17 02:44:15;;;;;;;0.10;0.10;;;14.90;71.80;;;;;;4853461;29;20045;-91
2023/07/17 02:46:41;;;;;;;0.10;0.10;;;14.90;68.40;;;;;;4871669;29;20071;-90
2023/07/17 02:49:18;;;;;;;0.32;0.32;;;15.00;70.90;;;;;;4860730;29;20109;-90
2023/07/17 02:51:46;;;;;;;0.80;0.20;;;14.90;70.60;;;;;;4839504;29;20049;-90
2023/07/17 02:54:15;;;;;;;0.25;0.22;;;14.80;72.20;;;;;;4868906;29;20045;-90
2023/07/17 02:56:48;;;;;;;0.13;0.13;;;14.80;72.80;;;;;;4861477;29;20063;-90
2023/07/17 02:59:16;;;;;;;0.25;0.25;;;14.80;70.80;;;;;;4867805;29;20087;-90
2023/07/17 03:01:45;;;;;;;0.35;0.20;;;14.80;75.50;;;;;;4854183;29;20061;-89
2023/07/17 03:04:30;;;;;;;0.20;0.20;;;15.00;75.80;;;;;;4871037;29;20058;-90
2023/07/17 03:06:56;;;;;;;0.17;0.17;;;14.80;74.10;;;;;;4853160;29;20049;-90
2023/07/17 03:09:22;;;;;;;0.10;0.10;;;14.80;77.70;;;;;;4858404;29;20136;-90
2023/07/17 03:11:53;;;;;;;0.22;0.22;;;14.70;78.30;;;;;;4851910;29;20414;-90
2023/07/17 03:14:21;;;;;;;0.30;0.20;;;14.70;80.60;;;;;;4869687;29;20061;-90
2023/07/17 03:16:50;;;;;;;0.20;0.20;;;14.80;80.80;;;;;;4862442;29;20401;-90
2023/07/17 03:19:16;;;;;;;0.20;0.13;;;14.70;85.00;;;;;;4843510;29;20061;-90
2023/07/17 03:21:44;;;;;;;0.27;0.27;;;14.70;85.30;;;;;;4850132;29;20048;-90
2023/07/17 03:24:19;;;;;;;0.70;0.40;;;14.70;84.00;;;;;;4851879;29;20294;-90
2023/07/17 03:26:45;;;;;;;0.10;0.10;;;14.60;83.10;;;;;;4843982;29;20049;-90
2023/07/17 03:29:11;;;;;;;0.45;0.10;;;14.70;83.60;;;;;;4856469;29;20059;-91
2023/07/17 03:31:36;;;;;;;0.70;0.70;;;14.70;82.50;;;;;;4870423;29;20413;-90
2023/07/17 03:34:10;;;;;;;0.45;0.20;;;14.70;85.60;;;;;;4829553;29;20294;-90
2023/07/17 03:36:36;;;;;;;0.10;0.10;;;14.70;90.30;;;;;;4867740;29;20121;-90
2023/07/17 03:39:04;;;;;;;0.25;0.20;;;14.60;86.40;;;;;;4867995;29;20120;-90
2023/07/17 03:41:30;;;;;;;0.40;0.40;;;14.70;89.70;;;;;;4859752;29;20495;-90
2023/07/17 03:44:01;;;;;;;0.35;0.25;;;14.70;90.60;;;;;;4846009;29;20061;-89
2023/07/17 03:46:30;;;;;;;0.60;0.40;;;14.60;89.70;;;;;;4851467;29;20077;-90
2023/07/17 03:49:05;;;;;;;0.38;0.20;;;14.60;90.00;;;;;;4857342;29;20490;-91
2023/07/17 03:51:31;;;;;;;0.20;0.20;;;14.70;89.30;;;;;;4861057;29;20053;-90
2023/07/17 03:53:56;;;;;;;0.32;0.32;;;14.70;91.20;;;;;;4851950;29;20108;-90
2023/07/17 03:56:22;;;;;;;0.30;0.30;;;14.60;88.30;;;;;;4879853;29;20049;-90
2023/07/17 03:58:48;;;;;;;0.35;0.35;;;14.60;91.70;;;;;;4863549;29;20298;-89
2023/07/17 04:01:16;;;;;;;0.17;0.17;;;14.70;90.40;;;;;;4879809;29;20064;-90
2023/07/17 04:03:49;;;;;;;0.32;0.20;;;14.70;89.20;;;;;;4863874;29;20084;-90
2023/07/17 04:06:18;;;;;;;0.10;0.10;;;14.70;90.10;;;;;;4879644;29;20056;-90
2023/07/17 04:08:43;;;;;;;0.10;0.10;;;14.70;89.50;;;;;;4863607;29;20052;-90
2023/07/17 04:11:14;;;;;;;0.40;0.20;;;14.70;90.10;;;;;;4863538;29;20097;-90
2023/07/17 04:13:50;;;;;;;1.20;0.68;;;14.70;89.20;;;;;;4879249;29;20060;-90
2023/07/17 04:16:18;;;;;;;0.38;0.38;;;14.70;90.30;;;;;;4862434;29;20049;-90
2023/07/17 04:18:49;;;;;;;0.20;0.20;;;14.70;90.10;;;;;;4854191;29;20502;-90
2023/07/17 04:21:24;;;;;;;0.50;0.30;;;14.20;90.00;;;;;;4850685;29;20054;-90
2023/07/17 04:24:00;;;;;;;;;;;;;;;;;;;;;
2023/07/17 04:26:34;;;;;;;0.20;0.20;;;14.50;88.20;;;;;;4859555;29;20049;-89
2023/07/17 04:29:02;;;;;;;0.30;0.30;;;14.70;90.10;;;;;;4863162;29;20053;-90
2023/07/17 04:31:32;;;;;;;0.20;0.20;;;14.70;89.10;;;;;;4844276;29;20074;-89
2023/07/17 04:33:58;;;;;;;0.20;0.20;;;14.80;87.00;;;;;;4851453;29;20057;-89
2023/07/17 04:36:24;;;;;;;0.65;0.20;;;14.70;85.40;;;;;;4867759;29;20045;-88
2023/07/17 04:39:01;;;;;;;2.55;0.30;;;14.80;83.70;;;;;;4854184;29;20400;-90
2023/07/17 04:41:27;;;;;;;0.68;0.30;;;14.80;87.10;;;;;;4838590;29;20115;-90
2023/07/17 04:43:58;;;;;;;0.13;0.13;;;14.80;87.90;;;;;;4858220;29;20179;-89
2023/07/17 04:46:26;;;;;;;0.00;0.00;;;14.80;88.50;;;;;;4870459;29;20321;-89
2023/07/17 04:48:57;;;;;;;0.30;0.30;;;14.90;87.10;;;;;;4850861;29;20447;-89
2023/07/17 04:51:25;;;;;;;0.03;0.03;;;14.90;86.10;;;;;;4872600;29;20097;-89
2023/07/17 04:53:56;;;;;;;0.57;0.15;;;14.90;90.10;;;;;;4866669;29;20049;-89
2023/07/17 04:56:22;;;;;;;0.17;0.10;;;15.00;90.50;;;;;;4829040;29;20041;-89
2023/07/17 04:58:49;;;;;;;0.40;0.40;;;15.10;85.50;;;;;;4860522;29;20562;-90
2023/07/17 05:01:25;;;;;;;0.65;0.45;;;15.20;87.90;;;;;;4869562;29;20105;-90
2023/07/17 05:03:53;;;;;;;0.00;0.00;;;15.20;83.30;;;;;;4864206;29;20084;-89
2023/07/17 05:06:19;;;;;;;0.57;0.57;;;15.30;83.30;;;;;;4849039;29;20062;-89
2023/07/17 05:08:47;;;;;;;0.20;0.20;;;14.70;78.70;;;;;;4846447;29;20052;-88
2023/07/17 05:11:13;;;;;;;0.32;0.28;;;15.50;81.70;;;;;;4848104;29;21006;-91
2023/07/17 05:13:41;;;;;;;0.50;0.45;;;15.80;77.80;;;;;;4867320;29;20040;-90
2023/07/17 05:16:07;;;;;;;0.20;0.20;;;16.40;74.30;;;;;;4866540;29;20128;-89
2023/07/17 05:18:53;;;;;;;0.35;0.35;;;17.00;57.00;;;;;;4842115;29;20144;-90
2023/07/17 05:21:19;;;;;;;0.40;0.20;;;17.60;10.20;;;;;;4850019;29;20056;-89
2023/07/17 05:23:51;;;;;;;0.43;0.40;;;17.90;1.00;;;;;;4851158;29;20137;-89
2023/07/17 05:26:20;;;;;;;0.25;0.25;;;18.10;1.00;;;;;;4869012;29;20462;-89
2023/07/17 05:28:49;;;;;;;0.22;0.20;;;18.30;1.00;;;;;;4831577;29;20144;-89
2023/07/17 05:31:17;;;;;;;2.38;0.30;;;18.30;1.00;;;;;;4866841;29;20439;-89
2023/07/17 05:33:43;;;;;;;0.20;0.20;;;18.30;1.00;;;;;;4865692;29;20045;-90
2023/07/17 05:36:09;;;;;;;0.30;0.30;;;18.20;1.00;;;;;;4843197;29;20124;-90
2023/07/17 05:38:35;;;;;;;0.30;0.30;;;18.10;1.00;;;;;;4843939;29;20114;-89
2023/07/17 05:41:06;;;;;;;0.20;0.20;;;18.00;1.00;;;;;;4836976;29;20136;-89
2023/07/17 05:43:32;;;;;;;0.45;0.30;;;17.70;1.00;;;;;;4847323;29;20165;-89
2023/07/17 05:45:58;;;;;;;0.20;0.20;;;17.50;1.00;;;;;;4847041;29;20052;-89
2023/07/17 05:48:24;;;;;;;0.47;0.47;;;17.40;1.00;;;;;;4862109;29;20071;-89
2023/07/17 05:50:50;;;;;;;0.43;0.35;;;17.20;1.00;;;;;;4861998;29;20494;-89
2023/07/17 05:53:19;;;;;;;0.38;0.38;;;17.00;1.00;;;;;;4861769;29;20136;-89
2023/07/17 05:55:52;;;;;;;0.30;0.30;;;16.80;7.00;;;;;;4846682;29;20144;-89
2023/07/17 05:58:26;;;;;;;0.35;0.32;;;16.70;17.30;;;;;;4858342;29;20073;-90
2023/07/17 06:00:51;;;;;;;0.03;0.03;;;16.60;23.60;;;;;;4858604;29;20060;-90
2023/07/17 06:03:20;;;;;;;0.20;0.20;;;15.60;25.60;;;;;;4849438;29;20049;-89
2023/07/17 06:05:50;;;;;;;0.10;0.10;;;16.30;30.40;;;;;;4868272;29;20049;-90
2023/07/17 06:08:24;;;;;;;0.28;0.28;;;16.20;33.80;;;;;;4858917;29;20040;-91
2023/07/17 06:10:50;;;;;;;0.28;0.28;;;16.10;41.90;;;;;;4832892;29;20053;-89
2023/07/17 06:13:16;;;;;;;0.15;0.15;;;16.20;47.70;;;;;;4849329;29;20121;-87
2023/07/17 06:15:43;;;;;;;0.17;0.17;;;16.30;54.40;;;;;;4860150;29;20628;-87
2023/07/17 06:18:11;;;;;;;0.22;0.22;;;16.30;50.60;;;;;;4865440;29;20045;-89
2023/07/17 06:20:37;;;;;;;0.45;0.38;;;16.30;50.50;;;;;;4868759;29;20037;-89
2023/07/17 06:23:03;;;;;;;0.13;0.13;;;16.20;46.20;;;;;;4844801;29;20057;-90
2023/07/17 06:25:39;;;;;;;0.20;0.20;;;16.30;48.90;;;;;;4850441;29;20074;-90
2023/07/17 06:28:08;;;;;;;0.70;0.30;;;17.10;52.70;;;;;;4868520;29;20046;-89
2023/07/17 06:30:36;;;;;;;0.45;0.20;;;16.30;55.50;;;;;;4865373;29;20490;-89
2023/07/17 06:33:07;;;;;;;0.57;0.47;;;16.50;55.70;;;;;;4829426;29;20442;-93
2023/07/17 06:35:38;;;;;;;0.30;0.30;;;16.50;43.60;;;;;;4855053;29;20081;-92
2023/07/17 06:38:20;;;;;;;0.15;0.13;;;16.50;41.30;;;;;;4842439;29;20060;-92
2023/07/17 06:40:53;;;;;;;0.30;0.20;;;16.40;36.60;;;;;;4872023;29;20064;-94
2023/07/17 06:43:39;;;;;;;0.30;0.30;;;15.90;35.80;;;;;;4848356;29;20053;-93
2023/07/17 06:46:08;;;;;;;0.65;0.43;;;16.60;39.30;;;;;;4861459;29;20053;-92
2023/07/17 06:48:34;;;;;;;0.63;0.35;;;16.70;38.40;;;;;;4856073;29;20056;-94
2023/07/17 06:51:09;;;;;;;0.28;0.28;;;16.70;27.10;;;;;;4852011;29;20049;-92
2023/07/17 06:53:44;;;;;;;0.40;0.40;;;16.80;25.00;;;;;;4872078;29;20082;-93
2023/07/17 06:56:12;;;;;;;0.50;0.50;;;17.00;24.90;;;;;;4832676;29;20056;-93
2023/07/17 06:58:47;;;;;;;1.00;0.65;;;17.20;16.00;;;;;;4832566;29;20054;-95
2023/07/17 07:01:14;;;;;;;0.55;0.25;;;17.30;15.60;;;;;;4870984;29;20063;-92
2023/07/17 07:03:40;;;;;;;0.38;0.38;;;17.50;17.90;;;;;;4869752;29;20091;-94
2023/07/17 07:06:08;;;;;;;0.20;0.20;;;16.70;3.20;;;;;;4869765;29;20463;-92
2023/07/17 07:08:34;;;;;;;0.50;0.50;;;17.80;7.00;;;;;;4860927;29;20080;-91
2023/07/17 07:11:02;;;;;;;0.73;0.35;;;18.00;1.00;;;;;;4860480;29;20469;-90
2023/07/17 07:13:32;;;;;;;0.30;0.22;;;17.90;1.00;;;;;;4846346;29;20109;-90
2023/07/17 07:15:57;;;;;;;0.65;0.35;;;17.80;1.00;;;;;;4846650;29;20045;-90
2023/07/17 07:18:23;;;;;;;0.32;0.30;;;17.90;1.00;;;;;;4846385;29;20077;-90
2023/07/17 07:20:59;;;;;;;0.60;0.60;;;17.90;1.00;;;;;;4831362;29;20049;-90
2023/07/17 07:23:25;;;;;;;0.95;0.63;;;18.20;1.00;;;;;;4860866;29;20054;-89
2023/07/17 07:25:50;;;;;;;0.43;0.43;;;17.80;1.00;;;;;;4862144;29;20056;-89
2023/07/17 07:28:18;;;;;;;0.50;0.50;;;17.90;1.00;;;;;;4845952;29;20079;-89
2023/07/17 07:30:56;;;;;;;0.30;0.30;;;17.90;1.00;;;;;;4817852;29;20045;-91
2023/07/17 07:33:24;;;;;;;0.30;0.30;;;17.80;1.00;;;;;;4845797;29;20486;-90
2023/07/17 07:35:50;;;;;;;1.38;0.82;;;17.90;1.00;;;;;;4846008;29;20049;-89
2023/07/17 07:38:16;;;;;;;0.40;0.40;;;18.00;1.00;;;;;;4851678;29;20183;-90
2023/07/17 07:40:42;;;;;;;0.60;0.35;;;17.90;1.00;;;;;;4863466;29;20045;-89
2023/07/17 07:43:07;;;;;;;1.35;0.60;;;18.00;1.00;;;;;;4846195;29;20106;-90
2023/07/17 07:45:33;;;;;;;0.82;0.40;;;18.00;1.00;;;;;;4829978;29;20121;-89
2023/07/17 07:48:01;;;;;;;0.88;0.60;;;18.10;1.00;;;;;;4846056;29;20048;-90
2023/07/17 07:50:32;;;;;;;0.30;0.30;;;18.20;1.00;;;;;;4845740;29;20061;-90
2023/07/17 07:52:58;;;;;;;0.40;0.30;;;18.30;1.00;;;;;;4861513;29;20080;-91
2023/07/17 07:55:23;;;;;;;0.73;0.73;;;18.40;1.00;;;;;;4860635;29;20092;-90
2023/07/17 07:57:52;;;;;;;1.08;0.40;;;18.50;1.00;;;;;;4861382;29;20049;-90
2023/07/17 08:00:18;;;;;;;0.63;0.35;;;18.40;1.00;;;;;;4860857;29;20045;-89
2023/07/17 08:02:46;;;;;;;0.90;0.75;;;18.30;1.00;;;;;;4830668;29;20045;-89
2023/07/17 08:05:14;;;;;;;1.02;0.43;;;18.20;1.00;;;;;;4861182;29;20132;-89
2023/07/17 08:07:40;;;;;;;0.30;0.22;;;18.10;1.00;;;;;;4845374;29;20037;-89
2023/07/17 08:10:06;;;;;;;0.13;0.13;;;18.20;1.00;;;;;;4845446;29;20041;-88
2023/07/17 08:12:32;;;;;;;0.40;0.38;;;18.30;1.00;;;;;;4860098;29;20278;-89
2023/07/17 08:14:58;;;;;;;0.50;0.50;;;18.20;1.00;;;;;;4845626;29;20041;-89
2023/07/17 08:17:26;;;;;;;0.52;0.50;;;18.10;1.00;;;;;;4845214;29;20041;-90
2023/07/17 08:19:54;;;;;;;0.40;0.40;;;18.00;1.00;;;;;;4860552;29;20144;-89
2023/07/17 08:22:19;;;;;;;0.68;0.43;;;17.80;1.00;;;;;;4844582;29;20066;-88
2023/07/17 08:24:45;;;;;;;0.50;0.30;;;17.60;1.00;;;;;;4860882;29;20053;-89
2023/07/17 08:27:13;;;;;;;0.65;0.30;;;17.50;1.00;;;;;;4845122;29;20186;-90
2023/07/17 08:29:41;;;;;;;0.88;0.45;;;17.40;1.00;;;;;;4845031;29;20053;-88
2023/07/17 08:32:08;;;;;;;0.45;0.45;;;17.10;1.00;;;;;;4860049;29;20045;-87
2023/07/17 08:34:34;;;;;;;0.17;0.17;;;16.00;22.90;;;;;;4845155;29;20049;-87
2023/07/17 08:37:00;;;;;;;0.30;0.30;;;16.70;33.50;;;;;;4814971;29;20501;-87
2023/07/17 08:39:25;;;;;;;0.87;0.43;;;16.50;59.10;;;;;;4794665;29;20449;-87
2023/07/17 08:41:51;;;;;;;2.67;0.77;;;16.30;65.70;;;;;;4845139;29;20290;-86
2023/07/17 08:44:17;;;;;;;0.32;0.32;;;16.10;68.90;;;;;;4830126;29;20052;-86
2023/07/17 08:46:43;;;;;;;0.28;0.20;;;16.10;80.20;;;;;;4844666;29;20390;-86
2023/07/17 08:49:12;;;;;;;0.20;0.20;;;16.10;91.80;;;;;;4844919;29;20053;-87
2023/07/17 08:51:38;;;;;;;0.43;0.30;;;16.10;91.50;;;;;;4859663;29;20056;-87
2023/07/17 08:54:04;;;;;;;0.40;0.40;;;16.20;93.70;;;;;;4829797;29;20057;-87
2023/07/17 08:56:29;;;;;;;0.83;0.20;;;16.20;91.30;;;;;;4843743;29;20045;-87
2023/07/17 08:58:56;;;;;;;0.30;0.30;;;16.30;90.60;;;;;;4849349;29;20397;-87
2023/07/17 09:01:21;;;;;;;0.63;0.30;;;16.30;91.80;;;;;;4792638;29;20048;-87
2023/07/17 09:03:51;;;;;;;0.63;0.35;;;16.30;93.50;;;;;;4826139;29;20395;-87
2023/07/17 09:06:23;;;;;;;0.63;0.63;;;16.40;93.70;;;;;;4841564;29;20050;-87
2023/07/17 09:08:49;;;;;;;0.40;0.40;;;16.50;94.30;;;;;;4826085;29;20042;-87
2023/07/17 09:11:15;;;;;;;0.83;0.57;;;16.60;95.70;;;;;;4826104;29;20061;-87
2023/07/17 09:13:45;;;;;;;0.32;0.32;;;16.60;96.30;;;;;;4841171;29;20125;-87
2023/07/17 09:16:16;;;;;;;1.20;0.50;;;16.60;97.00;;;;;;4826585;29;20049;-87
2023/07/17 09:18:42;;;;;;;0.55;0.45;;;16.60;95.30;;;;;;4825747;29;20132;-87
2023/07/17 09:21:11;;;;;;;0.43;0.43;;;16.70;94.50;;;;;;4826083;29;20046;-87
2023/07/17 09:23:38;;;;;;;0.50;0.47;;;16.70;94.60;;;;;;4853393;29;20059;-87
2023/07/17 09:26:04;;;;;;;0.77;0.30;;;16.80;93.10;;;;;;4859827;29;20060;-87
2023/07/17 09:28:29;;;;;;;0.27;0.20;;;16.80;95.00;;;;;;4863994;29;20041;-87
2023/07/17 09:31:02;;;;;;;0.30;0.30;;;16.80;92.90;;;;;;4828378;29;20102;-87
2023/07/17 09:33:27;;;;;;;0.28;0.28;;;16.80;91.00;;;;;;4828633;29;20487;-88
2023/07/17 09:35:56;;;;;;;0.83;0.73;;;16.90;87.40;;;;;;4813784;29;20097;-87
2023/07/17 09:38:25;;;;;;;1.15;0.80;;;16.90;81.70;;;;;;4814027;29;20416;-87
2023/07/17 09:40:51;;;;;;;0.30;0.30;;;16.90;78.50;;;;;;4843920;29;20124;-87
2023/07/17 09:43:31;;;;;;;0.32;0.32;;;16.90;78.30;;;;;;4844165;29;20133;-88
2023/07/17 09:45:59;;;;;;;0.25;0.25;;;17.00;76.70;;;;;;4844375;29;20044;-88
2023/07/17 09:48:30;;;;;;;0.55;0.55;;;17.10;72.50;;;;;;4843922;29;20049;-88
2023/07/17 09:50:57;;;;;;;2.63;0.75;;;17.30;67.20;;;;;;4844057;29;20045;-87
2023/07/17 09:53:24;;;;;;;0.20;0.20;;;17.40;52.90;;;;;;4814238;29;20210;-88
2023/07/17 09:55:51;;;;;;;0.70;0.50;;;17.60;22.60;;;;;;4828620;29;20443;-88
2023/07/17 09:58:18;;;;;;;0.20;0.20;;;17.70;19.50;;;;;;4859407;29;20049;-88
2023/07/17 10:00:48;;;;;;;0.32;0.30;;;17.90;1.00;;;;;;4861248;29;20049;-88
2023/07/17 10:03:17;;;;;;;0.20;0.20;;;18.00;4.20;;;;;;4843904;29;20062;-87
2023/07/17 10:05:43;;;;;;;0.20;0.20;;;18.20;1.00;;;;;;4828801;29;20551;-88
2023/07/17 10:08:10;;;;;;;0.30;0.30;;;18.40;1.00;;;;;;4829945;29;20054;-89
2023/07/17 10:10:37;;;;;;;0.32;0.30;;;18.60;1.00;;;;;;4847433;29;20132;-88
2023/07/17 10:13:04;;;;;;;0.30;0.30;;;18.80;1.00;;;;;;4863047;29;20049;-87
2023/07/17 10:15:30;;;;;;;0.20;0.20;;;18.90;1.00;;;;;;4863060;29;20055;-87
2023/07/17 10:17:57;;;;;;;0.38;0.25;;;18.90;1.00;;;;;;4847227;29;20067;-88
2023/07/17 10:20:23;;;;;;;1.00;0.17;;;19.10;1.00;;;;;;4817356;29;20387;-88
2023/07/17 10:22:49;;;;;;;0.28;0.22;;;19.20;99.90;;;;;;4847016;29;20390;-89
2023/07/17 10:25:18;;;;;;;0.35;0.22;;;19.20;99.90;;;;;;4817220;29;20049;-88
2023/07/17 10:27:56;;;;;;;0.30;0.20;;;19.30;99.90;;;;;;4847128;29;20041;-88
2023/07/17 10:30:32;;;;;;;0.10;0.10;;;19.30;99.90;;;;;;4863092;29;20053;-88
2023/07/17 10:33:16;;;;;;;0.50;0.50;;;19.30;1.00;;;;;;4862396;29;20379;-88
2023/07/17 10:36:00;;;;;;;0.40;0.40;;;19.40;99.90;;;;;;4862483;29;20052;-88
2023/07/17 10:38:28;;;;;;;0.20;0.20;;;19.40;99.90;;;;;;4862874;29;20049;-88
2023/07/17 10:41:05;;;;;;;0.15;0.10;;;19.50;99.90;;;;;;4846542;29;20049;-90
2023/07/17 10:43:31;;;;;;;;;;;19.50;99.90;;;;;;4847590;29;20053;-88
2023/07/17 10:45:59;;;;;;;0.38;0.30;;;19.60;99.90;;;;;;4846762;29;19976;-88
2023/07/17 10:48:25;;;;;;;0.10;0.10;;;19.70;99.90;;;;;;4846736;29;20053;-88
2023/07/17 10:50:52;;;;;;;;;;;19.80;99.90;;;;;;4847024;29;20050;-89
2023/07/17 10:53:18;;;;;;;0.30;0.30;;;19.90;1.00;;;;;;4847134;29;20026;-88
2023/07/17 10:55:46;;;;;;;0.40;0.40;;;20.00;99.90;;;;;;4846591;29;20373;-89
2023/07/17 10:58:12;;;;;;;0.40;0.20;;;20.00;1.00;;;;;;4847216;29;20138;-88
2023/07/17 11:00:43;;;;;;;1.75;1.63;;;20.10;99.90;;;;;;4862152;29;20050;-88
2023/07/17 11:03:22;;;;;;;0.10;0.10;;;20.20;99.90;;;;;;4861590;29;20105;-88
2023/07/17 11:05:55;;;;;;;0.20;0.20;;;20.40;1.00;;;;;;4846479;29;20053;-88
2023/07/17 11:08:24;;;;;;;0.10;0.10;;;20.50;99.90;;;;;;4831934;29;20132;-89
2023/07/17 11:10:49;;;;;;;0.43;0.40;;;20.60;1.00;;;;;;4830649;29;20128;-89
2023/07/17 11:13:15;;;;;;;0.17;0.17;;;20.70;99.90;;;;;;4846822;29;20162;-89
2023/07/17 11:15:43;;;;;;;0.13;0.13;;;20.80;99.90;;;;;;4846366;29;20482;-88
2023/07/17 11:18:09;;;;;;;0.35;0.35;;;20.90;99.90;;;;;;4846283;29;20057;-89
2023/07/17 11:20:35;;;;;;;0.25;0.10;;;20.90;1.00;;;;;;4845770;29;20481;-89
2023/07/17 11:23:00;;;;;;;0.30;0.30;;;20.80;99.90;;;;;;4815375;29;20068;-89
2023/07/17 11:25:32;;;;;;;0.15;0.15;;;20.70;99.90;;;;;;4830918;29;20057;-90
2023/07/17 11:28:00;;;;;;;0.82;0.30;;;20.50;99.90;;;;;;4830828;29;20128;-90
2023/07/17 11:30:28;;;;;;;0.30;0.30;;;20.50;99.90;;;;;;4845669;29;20075;-89
2023/07/17 11:33:07;;;;;;;0.10;0.10;;;20.50;99.90;;;;;;4861201;29;20052;-88
2023/07/17 11:35:41;;;;;;;0.25;0.15;;;20.50;99.90;;;;;;4846267;29;20063;-89
2023/07/17 11:38:07;;;;;;;0.38;0.22;;;20.50;99.90;;;;;;4876828;29;20050;-90
2023/07/17 11:41:02;;;;;;;0.20;0.20;;;20.60;99.90;;;;;;4861484;29;20064;-89
2023/07/17 11:43:31;;;;;;;0.20;0.20;;;20.80;99.90;;;;;;4877085;29;20053;-89
2023/07/17 11:46:02;;;;;;;0.10;0.10;;;21.00;1.00;;;;;;4876177;29;20384;-89
2023/07/17 11:48:32;;;;;;;0.10;0.10;;;21.00;99.90;;;;;;4845979;29;20122;-89
2023/07/17 11:51:02;;;;;;;0.10;0.10;;;21.00;99.90;;;;;;4876387;29;20056;-89
2023/07/17 11:53:28;;;;;;;0.20;0.20;;;20.90;99.90;;;;;;4845900;29;20390;-89
2023/07/17 11:55:55;;;;;;;0.57;0.30;;;20.80;1.00;;;;;;4876153;29;20131;-90
2023/07/17 11:58:24;;;;;;;;;;;20.60;99.90;;;;;;4877177;29;20105;-90
2023/07/17 12:00:52;;;;;;;0.17;0.05;;;20.30;1.00;;;;;;4859985;29;19920;-89
2023/07/17 12:03:19;;;;;;;0.40;0.32;;;20.20;7.90;;;;;;4845230;29;20155;-88
2023/07/17 12:05:45;;;;;;;;;;;20.10;1.00;;;;;;4864712;29;20393;-89
2023/07/17 12:08:11;;;;;;;2.47;0.20;;;20.00;1.00;;;;;;4863873;29;19923;-89
2023/07/17 12:10:36;;;;;;;0.20;0.17;;;19.80;99.90;;;;;;4864317;29;20047;-89
2023/07/17 12:13:05;;;;;;;0.60;0.30;;;19.80;1.00;;;;;;4863696;29;20052;-90
2023/07/17 12:15:32;;;;;;;0.43;0.43;;;19.90;1.00;;;;;;4864226;29;20125;-89
2023/07/17 12:17:58;;;;;;;0.20;0.20;;;20.10;99.90;;;;;;4863719;29;20052;-90
2023/07/17 12:20:25;;;;;;;0.20;0.20;;;20.20;99.90;;;;;;4864062;29;20053;-89
2023/07/17 12:22:55;;;;;;;0.10;0.10;;;20.40;99.90;;;;;;4863410;29;20093;-89
2023/07/17 12:25:24;;;;;;;1.27;0.35;;;20.50;99.90;;;;;;4863917;29;20060;-90
2023/07/17 12:27:50;;;;;;;0.20;0.20;;;20.60;99.90;;;;;;4848162;29;20052;-89
2023/07/17 12:30:22;;;;;;;0.63;0.63;;;20.50;99.90;;;;;;4833320;29;20389;-90
2023/07/17 12:32:50;;;;;;;0.10;0.10;;;20.40;1.00;;;;;;4860277;29;20053;-90
2023/07/17 12:35:15;;;;;;;0.10;0.10;;;20.30;99.90;;;;;;4845209;29;20386;-89
2023/07/17 12:37:41;;;;;;;0.25;0.22;;;20.20;90.20;;;;;;4844978;29;20042;-89
2023/07/17 12:40:07;;;;;;;0.28;0.20;;;20.10;12.30;;;;;;4829584;29;20060;-90
2023/07/17 12:42:33;;;;;;;0.30;0.30;;;20.00;1.00;;;;;;4814983;29;20053;-90
2023/07/17 12:44:59;;;;;;;0.10;0.10;;;20.00;99.90;;;;;;4844698;29;20144;-89
2023/07/17 12:47:24;;;;;;;0.52;0.43;;;20.20;99.90;;;;;;4830027;29;20046;-89
2023/07/17 12:49:51;;;;;;;0.10;0.10;;;20.50;99.90;;;;;;4814671;29;20144;-89
2023/07/17 12:52:16;;;;;;;;;;;20.80;99.90;;;;;;4845415;29;20050;-91
2023/07/17 12:54:42;;;;;;;0.05;0.03;;;20.90;99.90;;;;;;4829834;29;20279;-88
2023/07/17 12:57:10;;;;;;;0.10;0.10;;;21.00;99.90;;;;;;4844462;29;20056;-88
2023/07/17 12:59:36;;;;;;;0.10;0.10;;;21.00;99.90;;;;;;4799766;29;20050;-88
2023/07/17 13:02:03;;;;;;;0.10;0.10;;;21.00;99.90;;;;;;4820081;29;20089;-90